sensor_id;sensor_type;location;lat;lon;timestamp;temperature;humidity
4002;DHT22;2015;48.670;9.060;2022-11-24T00:00:12;4.00;99.90
4002;DHT22;2015;48.670;9.060;2022-11-24T00:02:44;4.00;99.90
4002;DHT22;2015;48.670;9.060;2022-11-24T00:05:18;4.10;99.90
4002;DHT22;2015;48.670;9.060;2022-11-24T00:07:50;4.20;99.90
4002;DHT22;2015;48.670;9.060;2022-11-24T00:10:21;4.20;99.90
4002;DHT22;2015;48.670;9.060;2022-11-24T00:12:53;4.20;99.90
4002;DHT22;2015;48.670;9.060;2022-11-24T00:15:25;4.30;99.90
4002;DHT22;2015;48.670;9.060;2022-11-24T00:17:56;4.40;99.90
4002;DHT22;2015;48.670;9.060;2022-11-24T00:20:28;4.50;99.90
4002;DHT22;2015;48.670;9.060;2022-11-24T00:23:00;4.60;99.90
4002;DHT22;2015;48.670;9.060;2022-11-24T00:25:32;4.90;99.90
4002;DHT22;2015;48.670;9.060;2022-11-24T00:28:03;5.20;99.90
4002;DHT22;2015;48.670;9.060;2022-11-24T00:30:35;5.30;99.90
4002;DHT22;2015;48.670;9.060;2022-11-24T00:33:07;5.50;99.90
4002;DHT22;2015;48.670;9.060;2022-11-24T00:35:39;5.70;99.90
4002;DHT22;2015;48.670;9.060;2022-11-24T00:38:10;5.80;99.90
4002;DHT22;2015;48.670;9.060;2022-11-24T00:40:42;5.90;99.90
4002;DHT22;2015;48.670;9.060;2022-11-24T00:43:14;6.00;99.90
4002;DHT22;2015;48.670;9.060;2022-11-24T00:45:46;6.00;99.90
4002;DHT22;2015;48.670;9.060;2022-11-24T00:48:19;6.00;99.90
4002;DHT22;2015;48.670;9.060;2022-11-24T00:50:59;6.10;99.90
4002;DHT22;2015;48.670;9.060;2022-11-24T00:53:31;6.10;99.90
4002;DHT22;2015;48.670;9.060;2022-11-24T00:56:05;6.20;99.90
4002;DHT22;2015;48.670;9.060;2022-11-24T00:58:37;6.20;99.90
4002;DHT22;2015;48.670;9.060;2022-11-24T01:01:21;6.30;99.90
4002;DHT22;2015;48.670;9.060;2022-11-24T01:03:53;6.40;99.90
4002;DHT22;2015;48.670;9.060;2022-11-24T01:06:27;6.40;99.90
4002;DHT22;2015;48.670;9.060;2022-11-24T01:08:59;6.40;99.90
4002;DHT22;2015;48.670;9.060;2022-11-24T01:11:34;6.40;99.90
4002;DHT22;2015;48.670;9.060;2022-11-24T01:14:24;6.40;99.90
4002;DHT22;2015;48.670;9.060;2022-11-24T01:16:56;6.30;99.90
4002;DHT22;2015;48.670;9.060;2022-11-24T01:19:28;6.30;99.90
4002;DHT22;2015;48.670;9.060;2022-11-24T01:21:59;6.30;99.90
4002;DHT22;2015;48.670;9.060;2022-11-24T01:24:31;6.30;99.90
4002;DHT22;2015;48.670;9.060;2022-11-24T01:27:03;6.30;99.90
4002;DHT22;2015;48.670;9.060;2022-11-24T01:29:35;6.30;99.90
4002;DHT22;2015;48.670;9.060;2022-11-24T01:32:07;6.30;99.90
4002;DHT22;2015;48.670;9.060;2022-11-24T01:34:39;6.30;99.90
4002;DHT22;2015;48.670;9.060;2022-11-24T01:37:10;6.20;99.90
4002;DHT22;2015;48.670;9.060;2022-11-24T01:39:42;6.10;99.90
4002;DHT22;2015;48.670;9.060;2022-11-24T01:42:14;6.00;99.90
4002;DHT22;2015;48.670;9.060;2022-11-24T01:44:47;6.00;99.90
4002;DHT22;2015;48.670;9.060;2022-11-24T01:50:02;6.10;99.90
4002;DHT22;2015;48.670;9.060;2022-11-24T01:52:41;6.10;99.90
4002;DHT22;2015;48.670;9.060;2022-11-24T01:55:22;6.10;99.90
4002;DHT22;2015;48.670;9.060;2022-11-24T01:58:01;6.10;99.90
4002;DHT22;2015;48.670;9.060;2022-11-24T02:00:35;6.20;99.90
4002;DHT22;2015;48.670;9.060;2022-11-24T02:03:11;6.20;99.90
4002;DHT22;2015;48.670;9.060;2022-11-24T02:06:24;6.20;99.90
4002;DHT22;2015;48.670;9.060;2022-11-24T02:11:23;6.20;99.90
4002;DHT22;2015;48.670;9.060;2022-11-24T02:13:56;6.20;99.90
4002;DHT22;2015;48.670;9.060;2022-11-24T02:16:28;6.10;99.90
4002;DHT22;2015;48.670;9.060;2022-11-24T02:19:07;6.00;99.90
4002;DHT22;2015;48.670;9.060;2022-11-24T02:21:43;6.00;99.90
4002;DHT22;2015;48.670;9.060;2022-11-24T02:24:17;6.00;99.90
4002;DHT22;2015;48.670;9.060;2022-11-24T02:26:50;5.90;99.90
4002;DHT22;2015;48.670;9.060;2022-11-24T02:29:25;5.80;99.90
4002;DHT22;2015;48.670;9.060;2022-11-24T02:32:02;5.80;99.90
4002;DHT22;2015;48.670;9.060;2022-11-24T02:34:35;5.70;99.90
4002;DHT22;2015;48.670;9.060;2022-11-24T02:37:08;5.60;99.90
4002;DHT22;2015;48.670;9.060;2022-11-24T02:39:40;5.40;99.90
4002;DHT22;2015;48.670;9.060;2022-11-24T02:42:12;5.30;99.90
4002;DHT22;2015;48.670;9.060;2022-11-24T02:44:48;5.20;99.90
4002;DHT22;2015;48.670;9.060;2022-11-24T02:47:21;5.10;99.90
4002;DHT22;2015;48.670;9.060;2022-11-24T02:49:53;4.90;99.90
4002;DHT22;2015;48.670;9.060;2022-11-24T02:52:26;4.80;99.90
4002;DHT22;2015;48.670;9.060;2022-11-24T02:54:57;4.70;99.90
4002;DHT22;2015;48.670;9.060;2022-11-24T02:57:29;4.60;99.90
4002;DHT22;2015;48.670;9.060;2022-11-24T03:00:02;4.50;99.90
4002;DHT22;2015;48.670;9.060;2022-11-24T03:02:34;4.40;99.90
4002;DHT22;2015;48.670;9.060;2022-11-24T03:05:06;4.40;99.90
4002;DHT22;2015;48.670;9.060;2022-11-24T03:07:38;4.30;99.90
4002;DHT22;2015;48.670;9.060;2022-11-24T03:10:10;4.30;99.90
4002;DHT22;2015;48.670;9.060;2022-11-24T03:12:42;4.20;99.90
4002;DHT22;2015;48.670;9.060;2022-11-24T03:15:14;4.20;99.90
4002;DHT22;2015;48.670;9.060;2022-11-24T03:17:46;4.10;99.90
4002;DHT22;2015;48.670;9.060;2022-11-24T03:20:17;4.10;99.90
4002;DHT22;2015;48.670;9.060;2022-11-24T03:22:49;4.10;99.90
4002;DHT22;2015;48.670;9.060;2022-11-24T03:25:21;4.10;99.90
4002;DHT22;2015;48.670;9.060;2022-11-24T03:27:55;4.10;99.90
4002;DHT22;2015;48.670;9.060;2022-11-24T03:30:27;4.10;99.90
4002;DHT22;2015;48.670;9.060;2022-11-24T03:32:59;4.00;99.90
4002;DHT22;2015;48.670;9.060;2022-11-24T03:35:31;4.00;99.90
4002;DHT22;2015;48.670;9.060;2022-11-24T03:38:02;4.00;99.90
4002;DHT22;2015;48.670;9.060;2022-11-24T03:40:34;4.00;99.90
4002;DHT22;2015;48.670;9.060;2022-11-24T03:43:06;3.90;99.90
4002;DHT22;2015;48.670;9.060;2022-11-24T03:45:37;3.90;99.90
4002;DHT22;2015;48.670;9.060;2022-11-24T03:48:17;4.00;99.90
4002;DHT22;2015;48.670;9.060;2022-11-24T03:50:53;4.10;99.90
4002;DHT22;2015;48.670;9.060;2022-11-24T03:53:28;4.20;99.90
4002;DHT22;2015;48.670;9.060;2022-11-24T03:56:00;4.30;99.90
4002;DHT22;2015;48.670;9.060;2022-11-24T03:58:33;4.30;99.90
4002;DHT22;2015;48.670;9.060;2022-11-24T04:01:04;4.50;99.90
4002;DHT22;2015;48.670;9.060;2022-11-24T04:03:36;4.60;99.90
4002;DHT22;2015;48.670;9.060;2022-11-24T04:06:08;4.70;99.90
4002;DHT22;2015;48.670;9.060;2022-11-24T04:08:40;4.90;99.90
4002;DHT22;2015;48.670;9.060;2022-11-24T04:11:12;5.00;99.90
4002;DHT22;2015;48.670;9.060;2022-11-24T04:14:03;5.10;99.90
4002;DHT22;2015;48.670;9.060;2022-11-24T04:16:42;5.20;99.90
4002;DHT22;2015;48.670;9.060;2022-11-24T04:19:14;5.30;99.90
4002;DHT22;2015;48.670;9.060;2022-11-24T04:21:46;5.40;99.90
4002;DHT22;2015;48.670;9.060;2022-11-24T04:24:18;5.50;99.90
4002;DHT22;2015;48.670;9.060;2022-11-24T04:26:49;5.40;99.90
4002;DHT22;2015;48.670;9.060;2022-11-24T04:29:21;5.30;99.90
4002;DHT22;2015;48.670;9.060;2022-11-24T04:31:53;5.20;99.90
4002;DHT22;2015;48.670;9.060;2022-11-24T04:34:25;5.20;99.90
4002;DHT22;2015;48.670;9.060;2022-11-24T04:36:56;5.20;99.90
4002;DHT22;2015;48.670;9.060;2022-11-24T04:39:28;5.10;99.90
4002;DHT22;2015;48.670;9.060;2022-11-24T04:42:01;5.10;99.90
4002;DHT22;2015;48.670;9.060;2022-11-24T04:44:33;5.20;99.90
4002;DHT22;2015;48.670;9.060;2022-11-24T04:47:05;5.20;99.90
4002;DHT22;2015;48.670;9.060;2022-11-24T04:49:37;5.00;99.90
4002;DHT22;2015;48.670;9.060;2022-11-24T04:52:08;4.90;99.90
4002;DHT22;2015;48.670;9.060;2022-11-24T04:54:40;4.80;99.90
4002;DHT22;2015;48.670;9.060;2022-11-24T04:57:19;4.80;99.90
4002;DHT22;2015;48.670;9.060;2022-11-24T04:59:51;4.80;99.90
4002;DHT22;2015;48.670;9.060;2022-11-24T05:02:23;4.70;99.90
4002;DHT22;2015;48.670;9.060;2022-11-24T05:04:55;4.70;99.90
4002;DHT22;2015;48.670;9.060;2022-11-24T05:07:27;4.60;99.90
4002;DHT22;2015;48.670;9.060;2022-11-24T05:10:00;4.50;99.90
4002;DHT22;2015;48.670;9.060;2022-11-24T05:12:54;4.40;99.90
4002;DHT22;2015;48.670;9.060;2022-11-24T05:15:27;4.30;99.90
4002;DHT22;2015;48.670;9.060;2022-11-24T05:18:03;4.20;99.90
4002;DHT22;2015;48.670;9.060;2022-11-24T05:20:35;4.20;99.90
4002;DHT22;2015;48.670;9.060;2022-11-24T05:23:07;4.10;99.90
4002;DHT22;2015;48.670;9.060;2022-11-24T05:25:39;4.20;99.90
4002;DHT22;2015;48.670;9.060;2022-11-24T05:28:18;4.20;99.90
4002;DHT22;2015;48.670;9.060;2022-11-24T05:30:50;4.20;99.90
4002;DHT22;2015;48.670;9.060;2022-11-24T05:33:21;4.20;99.90
4002;DHT22;2015;48.670;9.060;2022-11-24T05:35:53;4.30;99.90
4002;DHT22;2015;48.670;9.060;2022-11-24T05:38:25;4.40;99.90
4002;DHT22;2015;48.670;9.060;2022-11-24T05:41:03;4.40;99.90
4002;DHT22;2015;48.670;9.060;2022-11-24T05:43:36;4.30;99.90
4002;DHT22;2015;48.670;9.060;2022-11-24T05:46:07;4.30;99.90
4002;DHT22;2015;48.670;9.060;2022-11-24T05:48:39;4.20;99.90
4002;DHT22;2015;48.670;9.060;2022-11-24T05:51:11;4.10;99.90
4002;DHT22;2015;48.670;9.060;2022-11-24T05:53:43;4.10;99.90
4002;DHT22;2015;48.670;9.060;2022-11-24T05:56:14;4.00;99.90
4002;DHT22;2015;48.670;9.060;2022-11-24T05:58:46;4.00;99.90
4002;DHT22;2015;48.670;9.060;2022-11-24T06:01:18;4.00;99.90
4002;DHT22;2015;48.670;9.060;2022-11-24T06:03:50;4.00;99.90
4002;DHT22;2015;48.670;9.060;2022-11-24T06:06:21;4.00;99.90
4002;DHT22;2015;48.670;9.060;2022-11-24T06:08:53;4.00;99.90
4002;DHT22;2015;48.670;9.060;2022-11-24T06:11:25;4.10;99.90
4002;DHT22;2015;48.670;9.060;2022-11-24T06:13:57;4.10;99.90
4002;DHT22;2015;48.670;9.060;2022-11-24T06:16:29;4.00;99.90
4002;DHT22;2015;48.670;9.060;2022-11-24T06:19:01;4.10;99.90
4002;DHT22;2015;48.670;9.060;2022-11-24T06:21:32;4.10;99.90
4002;DHT22;2015;48.670;9.060;2022-11-24T06:24:04;4.10;99.90
4002;DHT22;2015;48.670;9.060;2022-11-24T06:26:36;4.10;99.90
4002;DHT22;2015;48.670;9.060;2022-11-24T06:29:08;4.20;99.90
4002;DHT22;2015;48.670;9.060;2022-11-24T06:31:40;4.20;99.90
4002;DHT22;2015;48.670;9.060;2022-11-24T06:34:12;4.30;99.90
4002;DHT22;2015;48.670;9.060;2022-11-24T06:36:44;4.30;99.90
4002;DHT22;2015;48.670;9.060;2022-11-24T06:39:16;4.40;99.90
4002;DHT22;2015;48.670;9.060;2022-11-24T06:41:49;4.40;99.90
4002;DHT22;2015;48.670;9.060;2022-11-24T06:44:21;4.50;99.90
4002;DHT22;2015;48.670;9.060;2022-11-24T06:46:53;4.50;99.90
4002;DHT22;2015;48.670;9.060;2022-11-24T06:49:25;4.60;99.90
4002;DHT22;2015;48.670;9.060;2022-11-24T06:51:57;4.60;99.90
4002;DHT22;2015;48.670;9.060;2022-11-24T06:54:28;4.70;99.90
4002;DHT22;2015;48.670;9.060;2022-11-24T06:57:00;4.70;99.90
4002;DHT22;2015;48.670;9.060;2022-11-24T06:59:32;4.80;99.90
4002;DHT22;2015;48.670;9.060;2022-11-24T07:02:04;4.80;99.90
4002;DHT22;2015;48.670;9.060;2022-11-24T07:04:36;4.90;99.90
4002;DHT22;2015;48.670;9.060;2022-11-24T07:07:08;5.00;99.90
4002;DHT22;2015;48.670;9.060;2022-11-24T07:09:40;5.00;99.90
4002;DHT22;2015;48.670;9.060;2022-11-24T07:12:11;5.00;99.90
4002;DHT22;2015;48.670;9.060;2022-11-24T07:14:43;5.10;99.90
4002;DHT22;2015;48.670;9.060;2022-11-24T07:17:15;5.20;99.90
4002;DHT22;2015;48.670;9.060;2022-11-24T07:19:47;5.20;99.90
4002;DHT22;2015;48.670;9.060;2022-11-24T07:22:19;5.40;99.90
4002;DHT22;2015;48.670;9.060;2022-11-24T07:24:51;5.50;99.90
4002;DHT22;2015;48.670;9.060;2022-11-24T07:27:22;5.60;99.90
4002;DHT22;2015;48.670;9.060;2022-11-24T07:29:54;5.80;99.90
4002;DHT22;2015;48.670;9.060;2022-11-24T07:32:26;5.80;99.90
4002;DHT22;2015;48.670;9.060;2022-11-24T07:34:59;5.80;99.90
4002;DHT22;2015;48.670;9.060;2022-11-24T07:37:31;6.00;99.90
4002;DHT22;2015;48.670;9.060;2022-11-24T07:40:03;6.00;99.90
4002;DHT22;2015;48.670;9.060;2022-11-24T07:42:35;6.10;99.90
4002;DHT22;2015;48.670;9.060;2022-11-24T07:45:07;6.10;99.90
4002;DHT22;2015;48.670;9.060;2022-11-24T07:47:39;6.20;99.90
4002;DHT22;2015;48.670;9.060;2022-11-24T07:50:12;6.20;99.90
4002;DHT22;2015;48.670;9.060;2022-11-24T07:52:43;6.20;99.90
4002;DHT22;2015;48.670;9.060;2022-11-24T07:55:15;6.20;99.90
4002;DHT22;2015;48.670;9.060;2022-11-24T07:57:47;6.20;99.90
4002;DHT22;2015;48.670;9.060;2022-11-24T08:00:19;6.30;99.90
4002;DHT22;2015;48.670;9.060;2022-11-24T08:02:52;6.30;99.90
4002;DHT22;2015;48.670;9.060;2022-11-24T08:05:24;6.30;99.90
4002;DHT22;2015;48.670;9.060;2022-11-24T08:07:58;6.30;99.90
4002;DHT22;2015;48.670;9.060;2022-11-24T08:10:30;6.30;99.90
4002;DHT22;2015;48.670;9.060;2022-11-24T08:13:02;6.30;99.90
4002;DHT22;2015;48.670;9.060;2022-11-24T08:15:33;6.40;99.90
4002;DHT22;2015;48.670;9.060;2022-11-24T08:18:05;6.30;99.90
4002;DHT22;2015;48.670;9.060;2022-11-24T08:20:37;6.30;99.90
4002;DHT22;2015;48.670;9.060;2022-11-24T08:23:09;6.40;99.90
4002;DHT22;2015;48.670;9.060;2022-11-24T08:25:41;6.30;99.90
4002;DHT22;2015;48.670;9.060;2022-11-24T08:28:12;6.30;99.90
4002;DHT22;2015;48.670;9.060;2022-11-24T08:30:44;6.30;99.90
4002;DHT22;2015;48.670;9.060;2022-11-24T08:33:16;6.30;99.90
4002;DHT22;2015;48.670;9.060;2022-11-24T08:35:48;6.30;99.90
4002;DHT22;2015;48.670;9.060;2022-11-24T08:38:19;6.30;99.90
4002;DHT22;2015;48.670;9.060;2022-11-24T08:40:51;6.40;99.90
4002;DHT22;2015;48.670;9.060;2022-11-24T08:43:23;6.40;99.90
4002;DHT22;2015;48.670;9.060;2022-11-24T08:45:59;6.40;99.90
4002;DHT22;2015;48.670;9.060;2022-11-24T08:48:32;6.40;99.90
4002;DHT22;2015;48.670;9.060;2022-11-24T08:51:12;6.40;99.90
4002;DHT22;2015;48.670;9.060;2022-11-24T08:53:44;6.40;99.90
4002;DHT22;2015;48.670;9.060;2022-11-24T08:56:16;6.50;99.90
4002;DHT22;2015;48.670;9.060;2022-11-24T08:58:48;6.50;99.90
4002;DHT22;2015;48.670;9.060;2022-11-24T09:01:20;6.60;99.90
4002;DHT22;2015;48.670;9.060;2022-11-24T09:03:52;6.70;99.90
4002;DHT22;2015;48.670;9.060;2022-11-24T09:06:27;6.80;99.90
4002;DHT22;2015;48.670;9.060;2022-11-24T09:09:01;6.90;99.90
4002;DHT22;2015;48.670;9.060;2022-11-24T09:11:33;6.90;99.90
4002;DHT22;2015;48.670;9.060;2022-11-24T09:14:05;7.00;99.90
4002;DHT22;2015;48.670;9.060;2022-11-24T09:16:37;7.00;99.90
4002;DHT22;2015;48.670;9.060;2022-11-24T09:19:09;7.10;99.90
4002;DHT22;2015;48.670;9.060;2022-11-24T09:21:41;7.20;99.90
4002;DHT22;2015;48.670;9.060;2022-11-24T09:24:12;7.50;99.90
4002;DHT22;2015;48.670;9.060;2022-11-24T09:26:44;7.60;99.90
4002;DHT22;2015;48.670;9.060;2022-11-24T09:29:18;7.60;99.90
4002;DHT22;2015;48.670;9.060;2022-11-24T09:31:50;7.50;99.90
4002;DHT22;2015;48.670;9.060;2022-11-24T09:34:22;7.50;99.90
4002;DHT22;2015;48.670;9.060;2022-11-24T09:36:53;7.50;99.90
4002;DHT22;2015;48.670;9.060;2022-11-24T09:39:26;7.40;99.90
4002;DHT22;2015;48.670;9.060;2022-11-24T09:42:03;7.40;99.90
4002;DHT22;2015;48.670;9.060;2022-11-24T09:48:03;7.40;99.90
4002;DHT22;2015;48.670;9.060;2022-11-24T09:50:39;7.50;99.90
4002;DHT22;2015;48.670;9.060;2022-11-24T10:01:34;7.60;99.90
4002;DHT22;2015;48.670;9.060;2022-11-24T10:10:17;7.60;99.90
4002;DHT22;2015;48.670;9.060;2022-11-24T10:18:43;7.60;99.90
4002;DHT22;2015;48.670;9.060;2022-11-24T10:21:33;7.70;99.90
4002;DHT22;2015;48.670;9.060;2022-11-24T10:27:25;8.20;99.90
4002;DHT22;2015;48.670;9.060;2022-11-24T10:29:59;8.20;99.90
4002;DHT22;2015;48.670;9.060;2022-11-24T10:32:36;8.10;99.90
4002;DHT22;2015;48.670;9.060;2022-11-24T10:35:20;8.10;99.90
4002;DHT22;2015;48.670;9.060;2022-11-24T10:38:06;8.10;99.90
4002;DHT22;2015;48.670;9.060;2022-11-24T10:40:49;8.10;99.90
4002;DHT22;2015;48.670;9.060;2022-11-24T10:43:30;8.10;99.90
4002;DHT22;2015;48.670;9.060;2022-11-24T10:46:23;8.20;99.90
4002;DHT22;2015;48.670;9.060;2022-11-24T10:48:59;8.60;99.90
4002;DHT22;2015;48.670;9.060;2022-11-24T10:54:33;10.30;99.90
4002;DHT22;2015;48.670;9.060;2022-11-24T10:57:06;10.80;99.90
4002;DHT22;2015;48.670;9.060;2022-11-24T10:59:38;10.40;99.90
4002;DHT22;2015;48.670;9.060;2022-11-24T11:02:35;9.90;99.90
4002;DHT22;2015;48.670;9.060;2022-11-24T11:06:00;9.40;99.90
4002;DHT22;2015;48.670;9.060;2022-11-24T11:08:33;9.60;99.90
4002;DHT22;2015;48.670;9.060;2022-11-24T11:11:25;9.80;99.90
4002;DHT22;2015;48.670;9.060;2022-11-24T11:14:02;9.70;99.90
4002;DHT22;2015;48.670;9.060;2022-11-24T11:17:00;9.40;99.90
4002;DHT22;2015;48.670;9.060;2022-11-24T11:19:44;9.20;99.90
4002;DHT22;2015;48.670;9.060;2022-11-24T11:22:28;9.00;99.90
4002;DHT22;2015;48.670;9.060;2022-11-24T11:27:41;8.90;99.90
4002;DHT22;2015;48.670;9.060;2022-11-24T11:30:23;9.10;99.90
4002;DHT22;2015;48.670;9.060;2022-11-24T11:33:27;9.20;99.90
4002;DHT22;2015;48.670;9.060;2022-11-24T11:36:19;9.30;99.90
4002;DHT22;2015;48.670;9.060;2022-11-24T11:38:52;9.30;99.90
4002;DHT22;2015;48.670;9.060;2022-11-24T11:41:35;9.20;99.90
4002;DHT22;2015;48.670;9.060;2022-11-24T11:44:15;9.10;99.90
4002;DHT22;2015;48.670;9.060;2022-11-24T11:46:52;9.10;99.90
4002;DHT22;2015;48.670;9.060;2022-11-24T11:49:26;9.20;99.90
4002;DHT22;2015;48.670;9.060;2022-11-24T11:52:39;9.20;99.90
4002;DHT22;2015;48.670;9.060;2022-11-24T11:55:19;9.30;99.90
4002;DHT22;2015;48.670;9.060;2022-11-24T11:58:39;9.40;99.90
4002;DHT22;2015;48.670;9.060;2022-11-24T12:06:49;9.40;99.90
4002;DHT22;2015;48.670;9.060;2022-11-24T12:12:31;9.60;99.90
4002;DHT22;2015;48.670;9.060;2022-11-24T12:18:02;10.00;99.90
4002;DHT22;2015;48.670;9.060;2022-11-24T12:23:52;10.00;99.90
4002;DHT22;2015;48.670;9.060;2022-11-24T12:32:30;9.80;99.90
4002;DHT22;2015;48.670;9.060;2022-11-24T12:41:29;9.80;99.90
4002;DHT22;2015;48.670;9.060;2022-11-24T12:52:34;9.80;99.90
4002;DHT22;2015;48.670;9.060;2022-11-24T12:55:15;9.70;99.90
4002;DHT22;2015;48.670;9.060;2022-11-24T13:03:54;9.80;99.90
4002;DHT22;2015;48.670;9.060;2022-11-24T13:09:30;9.40;99.90
4002;DHT22;2015;48.670;9.060;2022-11-24T13:12:11;9.30;99.90
4002;DHT22;2015;48.670;9.060;2022-11-24T13:14:45;9.30;99.90
4002;DHT22;2015;48.670;9.060;2022-11-24T13:22:57;9.10;99.90
4002;DHT22;2015;48.670;9.060;2022-11-24T13:25:31;9.00;99.90
4002;DHT22;2015;48.670;9.060;2022-11-24T13:28:04;9.00;99.90
4002;DHT22;2015;48.670;9.060;2022-11-24T13:44:41;8.90;99.90
4002;DHT22;2015;48.670;9.060;2022-11-24T13:47:36;9.00;99.90
4002;DHT22;2015;48.670;9.060;2022-11-24T13:53:05;9.10;99.90
4002;DHT22;2015;48.670;9.060;2022-11-24T13:55:40;9.10;99.90
4002;DHT22;2015;48.670;9.060;2022-11-24T14:09:32;9.30;99.90
4002;DHT22;2015;48.670;9.060;2022-11-24T14:12:14;9.20;99.90
4002;DHT22;2015;48.670;9.060;2022-11-24T14:14:48;9.20;99.90
4002;DHT22;2015;48.670;9.060;2022-11-24T14:17:22;9.10;99.90
4002;DHT22;2015;48.670;9.060;2022-11-24T14:19:56;9.20;99.90
4002;DHT22;2015;48.670;9.060;2022-11-24T14:22:35;9.20;99.90
4002;DHT22;2015;48.670;9.060;2022-11-24T14:25:25;9.20;99.90
4002;DHT22;2015;48.670;9.060;2022-11-24T14:27:59;9.10;99.90
4002;DHT22;2015;48.670;9.060;2022-11-24T14:30:31;9.10;99.90
4002;DHT22;2015;48.670;9.060;2022-11-24T14:33:03;9.00;99.90
4002;DHT22;2015;48.670;9.060;2022-11-24T14:35:41;9.00;99.90
4002;DHT22;2015;48.670;9.060;2022-11-24T14:38:13;8.90;99.90
4002;DHT22;2015;48.670;9.060;2022-11-24T14:40:50;8.80;99.90
4002;DHT22;2015;48.670;9.060;2022-11-24T14:43:31;8.70;99.90
4002;DHT22;2015;48.670;9.060;2022-11-24T14:46:07;8.60;99.90
4002;DHT22;2015;48.670;9.060;2022-11-24T14:48:50;8.60;99.90
4002;DHT22;2015;48.670;9.060;2022-11-24T14:54:00;8.50;99.90
4002;DHT22;2015;48.670;9.060;2022-11-24T14:56:37;8.50;99.90
4002;DHT22;2015;48.670;9.060;2022-11-24T14:59:21;8.50;99.90
4002;DHT22;2015;48.670;9.060;2022-11-24T15:01:53;8.30;99.90
4002;DHT22;2015;48.670;9.060;2022-11-24T15:04:30;8.20;99.90
4002;DHT22;2015;48.670;9.060;2022-11-24T15:07:25;8.00;99.90
4002;DHT22;2015;48.670;9.060;2022-11-24T15:09:59;7.90;99.90
4002;DHT22;2015;48.670;9.060;2022-11-24T15:12:40;7.80;99.90
4002;DHT22;2015;48.670;9.060;2022-11-24T15:17:54;7.70;99.90
4002;DHT22;2015;48.670;9.060;2022-11-24T15:20:29;7.60;99.90
4002;DHT22;2015;48.670;9.060;2022-11-24T15:23:27;7.60;99.90
4002;DHT22;2015;48.670;9.060;2022-11-24T15:28:34;7.40;99.90
4002;DHT22;2015;48.670;9.060;2022-11-24T15:31:10;7.30;99.90
4002;DHT22;2015;48.670;9.060;2022-11-24T15:33:43;7.10;99.90
4002;DHT22;2015;48.670;9.060;2022-11-24T15:36:14;7.00;99.90
4002;DHT22;2015;48.670;9.060;2022-11-24T15:38:47;6.90;99.90
4002;DHT22;2015;48.670;9.060;2022-11-24T15:41:20;6.80;99.90
4002;DHT22;2015;48.670;9.060;2022-11-24T15:43:52;6.70;99.90
4002;DHT22;2015;48.670;9.060;2022-11-24T15:46:30;6.60;99.90
4002;DHT22;2015;48.670;9.060;2022-11-24T15:49:08;6.50;99.90
4002;DHT22;2015;48.670;9.060;2022-11-24T15:51:42;6.40;99.90
4002;DHT22;2015;48.670;9.060;2022-11-24T15:54:15;6.30;99.90
4002;DHT22;2015;48.670;9.060;2022-11-24T15:56:48;6.10;99.90
4002;DHT22;2015;48.670;9.060;2022-11-24T15:59:20;6.00;99.90
4002;DHT22;2015;48.670;9.060;2022-11-24T16:01:52;5.90;99.90
4002;DHT22;2015;48.670;9.060;2022-11-24T16:04:23;5.80;99.90
4002;DHT22;2015;48.670;9.060;2022-11-24T16:06:55;5.80;99.90
4002;DHT22;2015;48.670;9.060;2022-11-24T16:09:27;5.70;99.90
4002;DHT22;2015;48.670;9.060;2022-11-24T16:11:59;5.70;99.90
4002;DHT22;2015;48.670;9.060;2022-11-24T16:14:30;5.60;99.90
4002;DHT22;2015;48.670;9.060;2022-11-24T16:17:03;5.60;99.90
4002;DHT22;2015;48.670;9.060;2022-11-24T16:19:34;5.50;99.90
4002;DHT22;2015;48.670;9.060;2022-11-24T16:22:12;5.50;99.90
4002;DHT22;2015;48.670;9.060;2022-11-24T16:24:44;5.40;99.90
4002;DHT22;2015;48.670;9.060;2022-11-24T16:27:16;5.40;99.90
4002;DHT22;2015;48.670;9.060;2022-11-24T16:29:47;5.30;99.90
4002;DHT22;2015;48.670;9.060;2022-11-24T16:32:19;5.30;99.90
4002;DHT22;2015;48.670;9.060;2022-11-24T16:34:51;5.20;99.90
4002;DHT22;2015;48.670;9.060;2022-11-24T16:37:23;5.20;99.90
4002;DHT22;2015;48.670;9.060;2022-11-24T16:39:54;5.10;99.90
4002;DHT22;2015;48.670;9.060;2022-11-24T16:42:26;5.00;99.90
4002;DHT22;2015;48.670;9.060;2022-11-24T16:44:58;5.00;99.90
4002;DHT22;2015;48.670;9.060;2022-11-24T16:47:30;5.00;99.90
4002;DHT22;2015;48.670;9.060;2022-11-24T16:50:02;5.00;99.90
4002;DHT22;2015;48.670;9.060;2022-11-24T16:52:33;5.00;99.90
4002;DHT22;2015;48.670;9.060;2022-11-24T16:55:06;5.00;99.90
4002;DHT22;2015;48.670;9.060;2022-11-24T16:57:40;4.90;99.90
4002;DHT22;2015;48.670;9.060;2022-11-24T17:00:12;4.90;99.90
4002;DHT22;2015;48.670;9.060;2022-11-24T17:02:44;4.90;99.90
4002;DHT22;2015;48.670;9.060;2022-11-24T17:05:16;4.90;99.90
4002;DHT22;2015;48.670;9.060;2022-11-24T17:07:48;4.90;99.90
4002;DHT22;2015;48.670;9.060;2022-11-24T17:10:20;4.90;99.90
4002;DHT22;2015;48.670;9.060;2022-11-24T17:12:52;4.90;99.90
4002;DHT22;2015;48.670;9.060;2022-11-24T17:15:23;4.90;99.90
4002;DHT22;2015;48.670;9.060;2022-11-24T17:18:05;4.90;99.90
4002;DHT22;2015;48.670;9.060;2022-11-24T17:20:58;4.90;99.90
4002;DHT22;2015;48.670;9.060;2022-11-24T17:23:35;4.80;99.90
4002;DHT22;2015;48.670;9.060;2022-11-24T17:26:10;4.80;99.90
4002;DHT22;2015;48.670;9.060;2022-11-24T17:28:43;4.80;99.90
4002;DHT22;2015;48.670;9.060;2022-11-24T17:33:55;4.60;99.90
4002;DHT22;2015;48.670;9.060;2022-11-24T17:36:28;4.60;99.90
4002;DHT22;2015;48.670;9.060;2022-11-24T17:39:02;4.60;99.90
4002;DHT22;2015;48.670;9.060;2022-11-24T17:41:35;4.50;99.90
4002;DHT22;2015;48.670;9.060;2022-11-24T17:44:07;4.50;99.90
4002;DHT22;2015;48.670;9.060;2022-11-24T17:46:41;4.40;99.90
4002;DHT22;2015;48.670;9.060;2022-11-24T17:49:12;4.40;99.90
4002;DHT22;2015;48.670;9.060;2022-11-24T17:51:45;4.30;99.90
4002;DHT22;2015;48.670;9.060;2022-11-24T17:54:20;4.30;99.90
4002;DHT22;2015;48.670;9.060;2022-11-24T17:57:12;4.30;99.90
4002;DHT22;2015;48.670;9.060;2022-11-24T17:59:44;4.30;99.90
4002;DHT22;2015;48.670;9.060;2022-11-24T18:02:16;4.30;99.90
4002;DHT22;2015;48.670;9.060;2022-11-24T18:04:48;4.30;99.90
4002;DHT22;2015;48.670;9.060;2022-11-24T18:07:20;4.30;99.90
4002;DHT22;2015;48.670;9.060;2022-11-24T18:09:52;4.30;99.90
4002;DHT22;2015;48.670;9.060;2022-11-24T18:12:23;4.20;99.90
4002;DHT22;2015;48.670;9.060;2022-11-24T18:14:55;4.20;99.90
4002;DHT22;2015;48.670;9.060;2022-11-24T18:17:27;4.20;99.90
4002;DHT22;2015;48.670;9.060;2022-11-24T18:19:59;4.10;99.90
4002;DHT22;2015;48.670;9.060;2022-11-24T18:22:31;4.00;99.90
4002;DHT22;2015;48.670;9.060;2022-11-24T18:25:24;4.00;99.90
4002;DHT22;2015;48.670;9.060;2022-11-24T18:27:56;4.00;99.90
4002;DHT22;2015;48.670;9.060;2022-11-24T18:30:28;4.00;99.90
4002;DHT22;2015;48.670;9.060;2022-11-24T18:33:00;4.00;99.90
4002;DHT22;2015;48.670;9.060;2022-11-24T18:35:31;4.00;99.90
4002;DHT22;2015;48.670;9.060;2022-11-24T18:38:04;3.90;99.90
4002;DHT22;2015;48.670;9.060;2022-11-24T18:40:39;3.90;99.90
4002;DHT22;2015;48.670;9.060;2022-11-24T18:43:10;3.90;99.90
4002;DHT22;2015;48.670;9.060;2022-11-24T18:45:42;3.90;99.90
4002;DHT22;2015;48.670;9.060;2022-11-24T18:48:14;3.90;99.90
4002;DHT22;2015;48.670;9.060;2022-11-24T18:50:50;3.90;99.90
4002;DHT22;2015;48.670;9.060;2022-11-24T18:53:24;3.80;99.90
4002;DHT22;2015;48.670;9.060;2022-11-24T18:56:03;3.80;99.90
4002;DHT22;2015;48.670;9.060;2022-11-24T18:58:37;3.80;99.90
4002;DHT22;2015;48.670;9.060;2022-11-24T19:01:16;3.80;99.90
4002;DHT22;2015;48.670;9.060;2022-11-24T19:03:50;3.70;99.90
4002;DHT22;2015;48.670;9.060;2022-11-24T19:06:33;3.70;99.90
4002;DHT22;2015;48.670;9.060;2022-11-24T19:09:13;3.70;99.90
4002;DHT22;2015;48.670;9.060;2022-11-24T19:11:46;3.80;99.90